sensor_id;sensor_type;location;lat;lon;timestamp;P1;durP1;ratioP1;P2;durP2;ratioP2
40637;SDS011;26336;44.696;10.622;2022-08-19T00:00:41;16.30;;;13.00;;
40637;SDS011;26336;44.696;10.622;2022-08-19T00:03:45;14.27;;;12.88;;
40637;SDS011;26336;44.696;10.622;2022-08-19T00:06:50;13.27;;;12.07;;
40637;SDS011;26336;44.696;10.622;2022-08-19T00:09:54;13.55;;;12.10;;
40637;SDS011;26336;44.696;10.622;2022-08-19T00:12:58;15.77;;;14.10;;
40637;SDS011;26336;44.696;10.622;2022-08-19T00:16:02;14.25;;;12.85;;
40637;SDS011;26336;44.696;10.622;2022-08-19T00:19:07;13.32;;;12.20;;
40637;SDS011;26336;44.696;10.622;2022-08-19T00:22:11;13.88;;;12.55;;
40637;SDS011;26336;44.696;10.622;2022-08-19T00:25:16;12.65;;;11.45;;
40637;SDS011;26336;44.696;10.622;2022-08-19T00:28:21;12.90;;;11.60;;
40637;SDS011;26336;44.696;10.622;2022-08-19T00:31:25;13.43;;;12.05;;
40637;SDS011;26336;44.696;10.622;2022-08-19T00:34:31;13.52;;;12.18;;
40637;SDS011;26336;44.696;10.622;2022-08-19T00:37:35;13.13;;;11.93;;
40637;SDS011;26336;44.696;10.622;2022-08-19T00:40:42;12.23;;;11.07;;
40637;SDS011;26336;44.696;10.622;2022-08-19T00:44:04;13.43;;;12.15;;
40637;SDS011;26336;44.696;10.622;2022-08-19T00:47:08;12.68;;;11.55;;
40637;SDS011;26336;44.696;10.622;2022-08-19T00:50:15;12.38;;;11.27;;
40637;SDS011;26336;44.696;10.622;2022-08-19T00:53:22;12.00;;;10.80;;
40637;SDS011;26336;44.696;10.622;2022-08-19T00:56:29;12.55;;;11.27;;
40637;SDS011;26336;44.696;10.622;2022-08-19T00:59:35;11.73;;;10.63;;
40637;SDS011;26336;44.696;10.622;2022-08-19T01:02:42;13.13;;;11.85;;
40637;SDS011;26336;44.696;10.622;2022-08-19T01:05:47;13.32;;;11.90;;
40637;SDS011;26336;44.696;10.622;2022-08-19T01:08:54;11.23;;;10.13;;
40637;SDS011;26336;44.696;10.622;2022-08-19T01:11:59;11.98;;;10.57;;
40637;SDS011;26336;44.696;10.622;2022-08-19T01:15:04;14.90;;;13.38;;
40637;SDS011;26336;44.696;10.622;2022-08-19T01:18:12;14.55;;;13.18;;
40637;SDS011;26336;44.696;10.622;2022-08-19T01:21:25;15.25;;;13.75;;
40637;SDS011;26336;44.696;10.622;2022-08-19T01:24:32;19.67;;;17.88;;
40637;SDS011;26336;44.696;10.622;2022-08-19T01:27:38;16.65;;;15.10;;
40637;SDS011;26336;44.696;10.622;2022-08-19T01:30:43;16.98;;;15.18;;
40637;SDS011;26336;44.696;10.622;2022-08-19T01:33:48;18.20;;;16.42;;
40637;SDS011;26336;44.696;10.622;2022-08-19T01:36:53;21.95;;;19.80;;
40637;SDS011;26336;44.696;10.622;2022-08-19T01:39:57;24.75;;;22.25;;
40637;SDS011;26336;44.696;10.622;2022-08-19T01:43:01;24.65;;;22.25;;
40637;SDS011;26336;44.696;10.622;2022-08-19T01:46:06;24.35;;;21.95;;
40637;SDS011;26336;44.696;10.622;2022-08-19T01:49:10;24.40;;;21.98;;
40637;SDS011;26336;44.696;10.622;2022-08-19T01:52:14;25.45;;;22.85;;
40637;SDS011;26336;44.696;10.622;2022-08-19T01:55:20;25.83;;;23.15;;
40637;SDS011;26336;44.696;10.622;2022-08-19T01:58:28;28.63;;;23.95;;
40637;SDS011;26336;44.696;10.622;2022-08-19T02:04:43;29.95;;;26.83;;
40637;SDS011;26336;44.696;10.622;2022-08-19T02:07:48;28.88;;;23.00;;
40637;SDS011;26336;44.696;10.622;2022-08-19T02:10:53;17.45;;;14.20;;
40637;SDS011;26336;44.696;10.622;2022-08-19T02:13:59;16.35;;;11.52;;
40637;SDS011;26336;44.696;10.622;2022-08-19T02:17:06;12.70;;;9.35;;
40637;SDS011;26336;44.696;10.622;2022-08-19T02:20:10;12.20;;;7.57;;
40637;SDS011;26336;44.696;10.622;2022-08-19T02:23:15;10.35;;;6.13;;
40637;SDS011;26336;44.696;10.622;2022-08-19T02:26:19;12.13;;;7.15;;
40637;SDS011;26336;44.696;10.622;2022-08-19T02:29:24;8.32;;;6.05;;
40637;SDS011;26336;44.696;10.622;2022-08-19T02:32:28;10.30;;;6.88;;
40637;SDS011;26336;44.696;10.622;2022-08-19T02:35:33;12.35;;;7.88;;
40637;SDS011;26336;44.696;10.622;2022-08-19T02:38:38;11.90;;;7.72;;
40637;SDS011;26336;44.696;10.622;2022-08-19T02:41:42;11.38;;;8.75;;
40637;SDS011;26336;44.696;10.622;2022-08-19T02:44:46;12.57;;;8.13;;
40637;SDS011;26336;44.696;10.622;2022-08-19T02:47:50;12.27;;;7.53;;
40637;SDS011;26336;44.696;10.622;2022-08-19T02:50:54;12.05;;;8.10;;
40637;SDS011;26336;44.696;10.622;2022-08-19T02:53:58;13.70;;;10.85;;
40637;SDS011;26336;44.696;10.622;2022-08-19T02:57:03;15.18;;;10.55;;
40637;SDS011;26336;44.696;10.622;2022-08-19T03:00:07;13.50;;;11.45;;
40637;SDS011;26336;44.696;10.622;2022-08-19T03:03:15;12.30;;;10.15;;
40637;SDS011;26336;44.696;10.622;2022-08-19T03:06:20;11.73;;;9.63;;
40637;SDS011;26336;44.696;10.622;2022-08-19T03:09:25;11.57;;;7.80;;
40637;SDS011;26336;44.696;10.622;2022-08-19T03:12:29;9.55;;;6.38;;
40637;SDS011;26336;44.696;10.622;2022-08-19T03:15:33;10.15;;;5.78;;
40637;SDS011;26336;44.696;10.622;2022-08-19T03:18:37;7.47;;;5.35;;
40637;SDS011;26336;44.696;10.622;2022-08-19T03:21:42;4.20;;;3.45;;
40637;SDS011;26336;44.696;10.622;2022-08-19T03:24:47;5.85;;;3.35;;
40637;SDS011;26336;44.696;10.622;2022-08-19T03:27:52;6.25;;;3.28;;
40637;SDS011;26336;44.696;10.622;2022-08-19T03:30:57;7.05;;;2.80;;
40637;SDS011;26336;44.696;10.622;2022-08-19T03:34:02;5.47;;;2.75;;
40637;SDS011;26336;44.696;10.622;2022-08-19T03:37:07;5.47;;;2.58;;
40637;SDS011;26336;44.696;10.622;2022-08-19T03:40:15;3.17;;;2.08;;
40637;SDS011;26336;44.696;10.622;2022-08-19T03:43:19;5.40;;;2.50;;
40637;SDS011;26336;44.696;10.622;2022-08-19T03:46:24;4.10;;;2.15;;
40637;SDS011;26336;44.696;10.622;2022-08-19T03:49:31;4.80;;;2.60;;
40637;SDS011;26336;44.696;10.622;2022-08-19T03:52:38;4.63;;;2.10;;
40637;SDS011;26336;44.696;10.622;2022-08-19T03:55:42;6.35;;;2.15;;
40637;SDS011;26336;44.696;10.622;2022-08-19T03:58:47;5.40;;;2.50;;
40637;SDS011;26336;44.696;10.622;2022-08-19T04:01:52;4.30;;;2.08;;
40637;SDS011;26336;44.696;10.622;2022-08-19T04:04:57;4.53;;;2.30;;
40637;SDS011;26336;44.696;10.622;2022-08-19T04:08:01;3.63;;;2.60;;
40637;SDS011;26336;44.696;10.622;2022-08-19T04:11:07;7.82;;;2.90;;
40637;SDS011;26336;44.696;10.622;2022-08-19T04:14:25;6.07;;;2.92;;
40637;SDS011;26336;44.696;10.622;2022-08-19T04:17:35;4.20;;;2.47;;
40637;SDS011;26336;44.696;10.622;2022-08-19T04:20:43;5.40;;;2.58;;
40637;SDS011;26336;44.696;10.622;2022-08-19T04:23:49;4.93;;;3.58;;
40637;SDS011;26336;44.696;10.622;2022-08-19T04:26:54;8.15;;;3.20;;
40637;SDS011;26336;44.696;10.622;2022-08-19T04:29:59;4.65;;;2.72;;
40637;SDS011;26336;44.696;10.622;2022-08-19T04:33:03;3.90;;;2.95;;
40637;SDS011;26336;44.696;10.622;2022-08-19T04:36:17;6.38;;;2.35;;
40637;SDS011;26336;44.696;10.622;2022-08-19T04:39:24;6.55;;;3.22;;
40637;SDS011;26336;44.696;10.622;2022-08-19T04:42:57;9.95;;;2.70;;
40637;SDS011;26336;44.696;10.622;2022-08-19T04:46:08;6.90;;;2.60;;
40637;SDS011;26336;44.696;10.622;2022-08-19T04:49:14;14.43;;;4.55;;
40637;SDS011;26336;44.696;10.622;2022-08-19T04:52:20;9.45;;;4.57;;
40637;SDS011;26336;44.696;10.622;2022-08-19T04:55:24;9.60;;;3.10;;
40637;SDS011;26336;44.696;10.622;2022-08-19T04:58:30;11.35;;;3.30;;
40637;SDS011;26336;44.696;10.622;2022-08-19T05:01:35;3.15;;;1.33;;
40637;SDS011;26336;44.696;10.622;2022-08-19T05:04:40;4.43;;;1.92;;
40637;SDS011;26336;44.696;10.622;2022-08-19T05:07:44;2.70;;;1.50;;
40637;SDS011;26336;44.696;10.622;2022-08-19T05:10:49;4.78;;;2.25;;
40637;SDS011;26336;44.696;10.622;2022-08-19T05:13:54;6.03;;;2.38;;
40637;SDS011;26336;44.696;10.622;2022-08-19T05:17:00;5.38;;;2.58;;
40637;SDS011;26336;44.696;10.622;2022-08-19T05:20:07;6.00;;;1.95;;
40637;SDS011;26336;44.696;10.622;2022-08-19T05:23:30;5.45;;;1.60;;
40637;SDS011;26336;44.696;10.622;2022-08-19T05:26:38;5.57;;;1.67;;
40637;SDS011;26336;44.696;10.622;2022-08-19T05:29:45;3.70;;;1.40;;
40637;SDS011;26336;44.696;10.622;2022-08-19T05:32:49;6.45;;;1.52;;
40637;SDS011;26336;44.696;10.622;2022-08-19T05:36:00;3.95;;;1.25;;
40637;SDS011;26336;44.696;10.622;2022-08-19T05:39:06;3.20;;;0.98;;
40637;SDS011;26336;44.696;10.622;2022-08-19T05:42:11;2.38;;;1.15;;
40637;SDS011;26336;44.696;10.622;2022-08-19T05:45:15;5.45;;;1.38;;
40637;SDS011;26336;44.696;10.622;2022-08-19T05:48:19;4.93;;;1.58;;
40637;SDS011;26336;44.696;10.622;2022-08-19T05:51:26;4.35;;;1.40;;
40637;SDS011;26336;44.696;10.622;2022-08-19T05:54:30;2.15;;;0.73;;
40637;SDS011;26336;44.696;10.622;2022-08-19T05:57:37;2.53;;;1.23;;
40637;SDS011;26336;44.696;10.622;2022-08-19T06:00:43;2.97;;;1.25;;
40637;SDS011;26336;44.696;10.622;2022-08-19T06:03:48;3.85;;;1.00;;
40637;SDS011;26336;44.696;10.622;2022-08-19T06:06:52;1.40;;;0.75;;
40637;SDS011;26336;44.696;10.622;2022-08-19T06:09:57;3.22;;;0.75;;
40637;SDS011;26336;44.696;10.622;2022-08-19T06:13:01;3.15;;;1.10;;
40637;SDS011;26336;44.696;10.622;2022-08-19T06:16:06;2.53;;;0.88;;
40637;SDS011;26336;44.696;10.622;2022-08-19T06:19:12;1.00;;;0.40;;
40637;SDS011;26336;44.696;10.622;2022-08-19T06:22:19;0.75;;;0.60;;
40637;SDS011;26336;44.696;10.622;2022-08-19T06:25:22;1.90;;;0.80;;
40637;SDS011;26336;44.696;10.622;2022-08-19T06:28:27;1.83;;;1.08;;
40637;SDS011;26336;44.696;10.622;2022-08-19T06:31:30;1.98;;;0.80;;
40637;SDS011;26336;44.696;10.622;2022-08-19T06:34:37;3.88;;;0.70;;
40637;SDS011;26336;44.696;10.622;2022-08-19T06:37:41;1.55;;;0.60;;
40637;SDS011;26336;44.696;10.622;2022-08-19T06:40:46;2.20;;;1.15;;
40637;SDS011;26336;44.696;10.622;2022-08-19T06:43:50;1.23;;;0.90;;
40637;SDS011;26336;44.696;10.622;2022-08-19T06:46:54;1.52;;;0.90;;
40637;SDS011;26336;44.696;10.622;2022-08-19T06:49:59;1.77;;;0.82;;
40637;SDS011;26336;44.696;10.622;2022-08-19T06:53:06;4.55;;;0.77;;
40637;SDS011;26336;44.696;10.622;2022-08-19T06:56:11;2.67;;;0.60;;
40637;SDS011;26336;44.696;10.622;2022-08-19T06:59:16;2.85;;;0.70;;
40637;SDS011;26336;44.696;10.622;2022-08-19T07:02:22;1.88;;;0.60;;
40637;SDS011;26336;44.696;10.622;2022-08-19T07:05:29;1.13;;;0.50;;
40637;SDS011;26336;44.696;10.622;2022-08-19T07:08:34;2.75;;;0.88;;
40637;SDS011;26336;44.696;10.622;2022-08-19T07:11:44;1.80;;;0.95;;
40637;SDS011;26336;44.696;10.622;2022-08-19T07:14:49;1.92;;;0.50;;
40637;SDS011;26336;44.696;10.622;2022-08-19T07:17:54;1.70;;;0.52;;
40637;SDS011;26336;44.696;10.622;2022-08-19T07:21:08;1.33;;;0.80;;
40637;SDS011;26336;44.696;10.622;2022-08-19T07:24:16;1.60;;;0.38;;
40637;SDS011;26336;44.696;10.622;2022-08-19T07:27:20;2.03;;;0.52;;
40637;SDS011;26336;44.696;10.622;2022-08-19T07:30:25;3.95;;;0.93;;
40637;SDS011;26336;44.696;10.622;2022-08-19T07:33:29;2.45;;;0.65;;
40637;SDS011;26336;44.696;10.622;2022-08-19T07:36:37;0.55;;;0.50;;
40637;SDS011;26336;44.696;10.622;2022-08-19T07:39:42;0.70;;;0.50;;
40637;SDS011;26336;44.696;10.622;2022-08-19T07:42:46;1.25;;;0.50;;
40637;SDS011;26336;44.696;10.622;2022-08-19T07:45:50;0.98;;;0.30;;
40637;SDS011;26336;44.696;10.622;2022-08-19T07:48:56;0.73;;;0.40;;
40637;SDS011;26336;44.696;10.622;2022-08-19T07:52:03;1.95;;;0.77;;
40637;SDS011;26336;44.696;10.622;2022-08-19T07:55:09;0.88;;;0.45;;
40637;SDS011;26336;44.696;10.622;2022-08-19T07:58:15;1.30;;;0.40;;
40637;SDS011;26336;44.696;10.622;2022-08-19T08:01:23;1.73;;;0.52;;
40637;SDS011;26336;44.696;10.622;2022-08-19T08:04:29;0.82;;;0.40;;
40637;SDS011;26336;44.696;10.622;2022-08-19T08:07:52;1.85;;;0.60;;
40637;SDS011;26336;44.696;10.622;2022-08-19T08:11:16;1.90;;;0.45;;
40637;SDS011;26336;44.696;10.622;2022-08-19T08:14:23;2.95;;;0.57;;
40637;SDS011;26336;44.696;10.622;2022-08-19T08:17:32;0.57;;;0.40;;
40637;SDS011;26336;44.696;10.622;2022-08-19T08:20:37;2.75;;;0.60;;
40637;SDS011;26336;44.696;10.622;2022-08-19T08:23:41;0.68;;;0.40;;
40637;SDS011;26336;44.696;10.622;2022-08-19T08:26:46;1.50;;;0.68;;
40637;SDS011;26336;44.696;10.622;2022-08-19T08:29:50;4.70;;;0.68;;
40637;SDS011;26336;44.696;10.622;2022-08-19T08:32:54;0.93;;;0.57;;
40637;SDS011;26336;44.696;10.622;2022-08-19T08:35:58;1.58;;;0.40;;
40637;SDS011;26336;44.696;10.622;2022-08-19T08:39:02;1.30;;;0.40;;
40637;SDS011;26336;44.696;10.622;2022-08-19T08:42:21;1.60;;;0.80;;
40637;SDS011;26336;44.696;10.622;2022-08-19T08:45:29;4.70;;;0.95;;
40637;SDS011;26336;44.696;10.622;2022-08-19T08:51:41;2.53;;;0.63;;
40637;SDS011;26336;44.696;10.622;2022-08-19T08:54:58;1.42;;;1.05;;
40637;SDS011;26336;44.696;10.622;2022-08-19T08:58:06;0.77;;;0.77;;
40637;SDS011;26336;44.696;10.622;2022-08-19T09:01:17;1.67;;;0.80;;
40637;SDS011;26336;44.696;10.622;2022-08-19T09:04:22;1.80;;;0.70;;
40637;SDS011;26336;44.696;10.622;2022-08-19T09:10:55;2.65;;;0.80;;
40637;SDS011;26336;44.696;10.622;2022-08-19T09:14:05;2.80;;;0.80;;
40637;SDS011;26336;44.696;10.622;2022-08-19T09:17:12;2.78;;;0.90;;
40637;SDS011;26336;44.696;10.622;2022-08-19T09:20:19;5.97;;;0.85;;
40637;SDS011;26336;44.696;10.622;2022-08-19T09:23:27;1.75;;;0.60;;
40637;SDS011;26336;44.696;10.622;2022-08-19T09:26:31;2.15;;;0.68;;
40637;SDS011;26336;44.696;10.622;2022-08-19T09:29:36;2.17;;;0.70;;
40637;SDS011;26336;44.696;10.622;2022-08-19T09:32:40;0.80;;;0.50;;
40637;SDS011;26336;44.696;10.622;2022-08-19T09:35:45;4.13;;;0.98;;
40637;SDS011;26336;44.696;10.622;2022-08-19T09:38:49;1.33;;;0.70;;
40637;SDS011;26336;44.696;10.622;2022-08-19T09:41:54;1.38;;;0.70;;
40637;SDS011;26336;44.696;10.622;2022-08-19T09:44:58;3.75;;;0.80;;
40637;SDS011;26336;44.696;10.622;2022-08-19T09:48:03;1.65;;;0.60;;
40637;SDS011;26336;44.696;10.622;2022-08-19T09:51:11;5.35;;;1.23;;
40637;SDS011;26336;44.696;10.622;2022-08-19T09:54:20;2.08;;;0.70;;
40637;SDS011;26336;44.696;10.622;2022-08-19T09:57:24;1.42;;;0.77;;
40637;SDS011;26336;44.696;10.622;2022-08-19T10:00:28;2.20;;;0.70;;
40637;SDS011;26336;44.696;10.622;2022-08-19T10:03:34;1.67;;;0.80;;
40637;SDS011;26336;44.696;10.622;2022-08-19T10:06:39;2.83;;;0.75;;
40637;SDS011;26336;44.696;10.622;2022-08-19T10:09:45;2.47;;;1.20;;
40637;SDS011;26336;44.696;10.622;2022-08-19T10:12:50;1.20;;;0.57;;
40637;SDS011;26336;44.696;10.622;2022-08-19T10:15:56;2.00;;;0.65;;
40637;SDS011;26336;44.696;10.622;2022-08-19T10:19:06;2.03;;;0.88;;
40637;SDS011;26336;44.696;10.622;2022-08-19T10:22:10;2.33;;;0.68;;
40637;SDS011;26336;44.696;10.622;2022-08-19T10:25:17;1.85;;;0.60;;
40637;SDS011;26336;44.696;10.622;2022-08-19T10:28:21;1.75;;;0.63;;
40637;SDS011;26336;44.696;10.622;2022-08-19T10:31:28;1.75;;;0.50;;
40637;SDS011;26336;44.696;10.622;2022-08-19T10:37:42;3.88;;;1.08;;
40637;SDS011;26336;44.696;10.622;2022-08-19T10:40:46;3.35;;;0.63;;
40637;SDS011;26336;44.696;10.622;2022-08-19T10:43:51;0.95;;;0.52;;
40637;SDS011;26336;44.696;10.622;2022-08-19T10:47:02;2.40;;;0.95;;
40637;SDS011;26336;44.696;10.622;2022-08-19T10:50:07;1.73;;;0.73;;
40637;SDS011;26336;44.696;10.622;2022-08-19T10:56:33;2.70;;;1.00;;
40637;SDS011;26336;44.696;10.622;2022-08-19T10:59:56;3.00;;;0.70;;
40637;SDS011;26336;44.696;10.622;2022-08-19T11:03:00;1.08;;;0.63;;
40637;SDS011;26336;44.696;10.622;2022-08-19T11:06:08;1.92;;;0.70;;
40637;SDS011;26336;44.696;10.622;2022-08-19T11:09:13;1.85;;;0.90;;
40637;SDS011;26336;44.696;10.622;2022-08-19T11:12:19;1.63;;;0.68;;
40637;SDS011;26336;44.696;10.622;2022-08-19T11:15:23;1.52;;;0.70;;
40637;SDS011;26336;44.696;10.622;2022-08-19T11:18:28;1.75;;;1.08;;
40637;SDS011;26336;44.696;10.622;2022-08-19T11:21:33;2.00;;;0.60;;
40637;SDS011;26336;44.696;10.622;2022-08-19T11:24:40;2.13;;;0.80;;
40637;SDS011;26336;44.696;10.622;2022-08-19T11:27:44;1.83;;;0.75;;
40637;SDS011;26336;44.696;10.622;2022-08-19T11:30:49;2.88;;;0.80;;
40637;SDS011;26336;44.696;10.622;2022-08-19T11:33:55;1.83;;;0.50;;
40637;SDS011;26336;44.696;10.622;2022-08-19T11:37:00;2.88;;;0.90;;
40637;SDS011;26336;44.696;10.622;2022-08-19T11:40:06;2.10;;;0.70;;
40637;SDS011;26336;44.696;10.622;2022-08-19T11:43:11;1.45;;;0.70;;
40637;SDS011;26336;44.696;10.622;2022-08-19T11:46:15;4.65;;;0.90;;
40637;SDS011;26336;44.696;10.622;2022-08-19T11:49:20;1.90;;;0.60;;
40637;SDS011;26336;44.696;10.622;2022-08-19T11:52:24;2.38;;;0.60;;
40637;SDS011;26336;44.696;10.622;2022-08-19T11:55:28;1.10;;;0.60;;
40637;SDS011;26336;44.696;10.622;2022-08-19T11:58:33;1.17;;;0.50;;
40637;SDS011;26336;44.696;10.622;2022-08-19T12:01:37;2.45;;;0.85;;
40637;SDS011;26336;44.696;10.622;2022-08-19T12:04:44;1.00;;;0.52;;
40637;SDS011;26336;44.696;10.622;2022-08-19T12:07:51;0.93;;;0.30;;
40637;SDS011;26336;44.696;10.622;2022-08-19T12:10:54;2.13;;;0.47;;
40637;SDS011;26336;44.696;10.622;2022-08-19T12:13:59;0.52;;;0.38;;
40637;SDS011;26336;44.696;10.622;2022-08-19T12:17:03;0.90;;;0.47;;
40637;SDS011;26336;44.696;10.622;2022-08-19T12:20:11;0.70;;;0.40;;
40637;SDS011;26336;44.696;10.622;2022-08-19T12:23:18;1.05;;;0.50;;
40637;SDS011;26336;44.696;10.622;2022-08-19T12:26:23;1.25;;;0.43;;
40637;SDS011;26336;44.696;10.622;2022-08-19T12:29:29;1.25;;;0.60;;
40637;SDS011;26336;44.696;10.622;2022-08-19T12:32:33;0.55;;;0.52;;
40637;SDS011;26336;44.696;10.622;2022-08-19T12:35:39;1.15;;;0.60;;
40637;SDS011;26336;44.696;10.622;2022-08-19T12:38:45;1.42;;;0.60;;
40637;SDS011;26336;44.696;10.622;2022-08-19T12:41:50;2.83;;;0.73;;
40637;SDS011;26336;44.696;10.622;2022-08-19T12:44:55;2.40;;;0.68;;
40637;SDS011;26336;44.696;10.622;2022-08-19T12:47:59;1.55;;;0.52;;
40637;SDS011;26336;44.696;10.622;2022-08-19T12:51:07;0.40;;;0.40;;
40637;SDS011;26336;44.696;10.622;2022-08-19T12:54:16;0.70;;;0.40;;
40637;SDS011;26336;44.696;10.622;2022-08-19T12:57:21;0.68;;;0.40;;
40637;SDS011;26336;44.696;10.622;2022-08-19T13:00:27;2.70;;;0.70;;
40637;SDS011;26336;44.696;10.622;2022-08-19T13:03:32;0.80;;;0.50;;
40637;SDS011;26336;44.696;10.622;2022-08-19T13:06:36;1.58;;;0.77;;
40637;SDS011;26336;44.696;10.622;2022-08-19T13:09:41;2.28;;;0.70;;
40637;SDS011;26336;44.696;10.622;2022-08-19T13:12:46;0.77;;;0.52;;
40637;SDS011;26336;44.696;10.622;2022-08-19T13:15:51;2.67;;;0.60;;
40637;SDS011;26336;44.696;10.622;2022-08-19T13:18:56;1.83;;;0.60;;
40637;SDS011;26336;44.696;10.622;2022-08-19T13:22:00;0.75;;;0.40;;
40637;SDS011;26336;44.696;10.622;2022-08-19T13:25:05;2.65;;;0.73;;
40637;SDS011;26336;44.696;10.622;2022-08-19T13:28:10;1.25;;;0.80;;
40637;SDS011;26336;44.696;10.622;2022-08-19T13:31:15;2.25;;;0.50;;
40637;SDS011;26336;44.696;10.622;2022-08-19T13:34:38;3.33;;;0.68;;
40637;SDS011;26336;44.696;10.622;2022-08-19T13:37:43;1.52;;;0.60;;
40637;SDS011;26336;44.696;10.622;2022-08-19T13:40:48;1.77;;;0.50;;
40637;SDS011;26336;44.696;10.622;2022-08-19T13:43:53;4.20;;;0.70;;
40637;SDS011;26336;44.696;10.622;2022-08-19T13:47:04;0.88;;;0.60;;
40637;SDS011;26336;44.696;10.622;2022-08-19T13:50:10;1.95;;;0.60;;
40637;SDS011;26336;44.696;10.622;2022-08-19T13:53:16;1.05;;;0.30;;
40637;SDS011;26336;44.696;10.622;2022-08-19T13:56:20;1.52;;;0.60;;
40637;SDS011;26336;44.696;10.622;2022-08-19T13:59:24;1.23;;;0.40;;
40637;SDS011;26336;44.696;10.622;2022-08-19T14:02:28;0.47;;;0.43;;
40637;SDS011;26336;44.696;10.622;2022-08-19T14:05:32;1.50;;;0.50;;
40637;SDS011;26336;44.696;10.622;2022-08-19T14:08:37;0.80;;;0.73;;
40637;SDS011;26336;44.696;10.622;2022-08-19T14:11:42;1.73;;;0.47;;
40637;SDS011;26336;44.696;10.622;2022-08-19T14:14:48;1.20;;;0.40;;
40637;SDS011;26336;44.696;10.622;2022-08-19T14:17:53;1.70;;;0.50;;
40637;SDS011;26336;44.696;10.622;2022-08-19T14:20:57;0.55;;;0.40;;
40637;SDS011;26336;44.696;10.622;2022-08-19T14:24:01;2.22;;;0.60;;
40637;SDS011;26336;44.696;10.622;2022-08-19T14:27:05;0.55;;;0.40;;
40637;SDS011;26336;44.696;10.622;2022-08-19T14:30:11;1.50;;;0.50;;
40637;SDS011;26336;44.696;10.622;2022-08-19T14:33:18;0.47;;;0.38;;
40637;SDS011;26336;44.696;10.622;2022-08-19T14:36:21;1.95;;;0.50;;
40637;SDS011;26336;44.696;10.622;2022-08-19T14:39:25;1.70;;;0.50;;
40637;SDS011;26336;44.696;10.622;2022-08-19T14:42:29;0.90;;;0.50;;
40637;SDS011;26336;44.696;10.622;2022-08-19T14:45:35;0.85;;;0.60;;
40637;SDS011;26336;44.696;10.622;2022-08-19T14:48:40;2.60;;;0.98;;
40637;SDS011;26336;44.696;10.622;2022-08-19T14:51:45;1.77;;;0.43;;
40637;SDS011;26336;44.696;10.622;2022-08-19T14:54:50;1.05;;;0.93;;
40637;SDS011;26336;44.696;10.622;2022-08-19T14:57:55;1.05;;;0.63;;
40637;SDS011;26336;44.696;10.622;2022-08-19T15:00:58;0.55;;;0.43;;
40637;SDS011;26336;44.696;10.622;2022-08-19T15:04:02;0.47;;;0.40;;
40637;SDS011;26336;44.696;10.622;2022-08-19T15:07:06;0.80;;;0.75;;
40637;SDS011;26336;44.696;10.622;2022-08-19T15:10:11;2.28;;;0.45;;
40637;SDS011;26336;44.696;10.622;2022-08-19T15:13:16;2.63;;;0.55;;
40637;SDS011;26336;44.696;10.622;2022-08-19T15:16:20;0.90;;;0.40;;
40637;SDS011;26336;44.696;10.622;2022-08-19T15:19:25;2.08;;;0.60;;
40637;SDS011;26336;44.696;10.622;2022-08-19T15:22:29;0.80;;;0.50;;
40637;SDS011;26336;44.696;10.622;2022-08-19T15:25:36;1.13;;;0.50;;
40637;SDS011;26336;44.696;10.622;2022-08-19T15:28:40;0.93;;;0.40;;
40637;SDS011;26336;44.696;10.622;2022-08-19T15:31:44;1.67;;;0.60;;
40637;SDS011;26336;44.696;10.622;2022-08-19T15:34:49;1.33;;;0.60;;
40637;SDS011;26336;44.696;10.622;2022-08-19T15:37:53;1.42;;;0.60;;
40637;SDS011;26336;44.696;10.622;2022-08-19T15:40:59;2.00;;;0.60;;
40637;SDS011;26336;44.696;10.622;2022-08-19T15:44:23;1.15;;;0.60;;
40637;SDS011;26336;44.696;10.622;2022-08-19T15:47:28;1.83;;;0.77;;
40637;SDS011;26336;44.696;10.622;2022-08-19T15:50:32;1.35;;;0.50;;
40637;SDS011;26336;44.696;10.622;2022-08-19T15:53:38;1.98;;;0.60;;
40637;SDS011;26336;44.696;10.622;2022-08-19T15:56:43;1.65;;;0.93;;
40637;SDS011;26336;44.696;10.622;2022-08-19T16:00:06;0.63;;;0.63;;
40637;SDS011;26336;44.696;10.622;2022-08-19T16:03:30;1.33;;;0.63;;
40637;SDS011;26336;44.696;10.622;2022-08-19T16:06:54;1.02;;;0.77;;
40637;SDS011;26336;44.696;10.622;2022-08-19T16:09:59;2.95;;;0.55;;
40637;SDS011;26336;44.696;10.622;2022-08-19T16:13:03;1.58;;;0.77;;
40637;SDS011;26336;44.696;10.622;2022-08-19T16:16:08;0.60;;;0.40;;
40637;SDS011;26336;44.696;10.622;2022-08-19T16:19:13;0.68;;;0.47;;
40637;SDS011;26336;44.696;10.622;2022-08-19T16:22:19;1.30;;;0.55;;
40637;SDS011;26336;44.696;10.622;2022-08-19T16:25:24;1.35;;;0.60;;
40637;SDS011;26336;44.696;10.622;2022-08-19T16:28:31;2.38;;;0.68;;
40637;SDS011;26336;44.696;10.622;2022-08-19T16:31:35;1.52;;;0.80;;
40637;SDS011;26336;44.696;10.622;2022-08-19T16:34:40;2.50;;;0.85;;
40637;SDS011;26336;44.696;10.622;2022-08-19T16:37:45;1.13;;;0.65;;
40637;SDS011;26336;44.696;10.622;2022-08-19T16:40:49;1.73;;;0.75;;
40637;SDS011;26336;44.696;10.622;2022-08-19T16:43:56;2.30;;;0.43;;
40637;SDS011;26336;44.696;10.622;2022-08-19T16:47:00;1.02;;;0.60;;
40637;SDS011;26336;44.696;10.622;2022-08-19T16:50:04;0.95;;;0.60;;
40637;SDS011;26336;44.696;10.622;2022-08-19T16:53:09;1.38;;;0.60;;
40637;SDS011;26336;44.696;10.622;2022-08-19T16:56:13;1.05;;;0.75;;
40637;SDS011;26336;44.696;10.622;2022-08-19T16:59:18;1.33;;;0.80;;
40637;SDS011;26336;44.696;10.622;2022-08-19T17:02:22;1.52;;;0.70;;
40637;SDS011;26336;44.696;10.622;2022-08-19T17:05:25;1.00;;;0.70;;
40637;SDS011;26336;44.696;10.622;2022-08-19T17:08:30;2.25;;;0.90;;
40637;SDS011;26336;44.696;10.622;2022-08-19T17:11:35;2.95;;;0.55;;
40637;SDS011;26336;44.696;10.622;2022-08-19T17:14:39;0.77;;;0.50;;
40637;SDS011;26336;44.696;10.622;2022-08-19T17:17:43;1.75;;;0.80;;
40637;SDS011;26336;44.696;10.622;2022-08-19T17:20:47;1.13;;;0.70;;
40637;SDS011;26336;44.696;10.622;2022-08-19T17:23:53;1.63;;;0.65;;
40637;SDS011;26336;44.696;10.622;2022-08-19T17:26:59;1.25;;;0.50;;
40637;SDS011;26336;44.696;10.622;2022-08-19T17:30:03;1.75;;;0.80;;
40637;SDS011;26336;44.696;10.622;2022-08-19T17:33:09;0.80;;;0.57;;
40637;SDS011;26336;44.696;10.622;2022-08-19T17:36:13;1.92;;;0.63;;
40637;SDS011;26336;44.696;10.622;2022-08-19T17:39:28;1.33;;;0.70;;
40637;SDS011;26336;44.696;10.622;2022-08-19T17:42:32;1.50;;;0.70;;
40637;SDS011;26336;44.696;10.622;2022-08-19T17:45:38;1.30;;;0.65;;
40637;SDS011;26336;44.696;10.622;2022-08-19T17:48:42;1.23;;;0.85;;
40637;SDS011;26336;44.696;10.622;2022-08-19T17:51:47;2.30;;;1.00;;
40637;SDS011;26336;44.696;10.622;2022-08-19T17:54:52;2.15;;;0.93;;
40637;SDS011;26336;44.696;10.622;2022-08-19T17:57:56;1.20;;;0.73;;
40637;SDS011;26336;44.696;10.622;2022-08-19T18:01:00;1.25;;;1.00;;
40637;SDS011;26336;44.696;10.622;2022-08-19T18:04:05;4.82;;;1.45;;
40637;SDS011;26336;44.696;10.622;2022-08-19T18:07:09;1.75;;;1.00;;
40637;SDS011;26336;44.696;10.622;2022-08-19T18:10:13;3.72;;;1.20;;
40637;SDS011;26336;44.696;10.622;2022-08-19T18:13:17;2.05;;;1.08;;
40637;SDS011;26336;44.696;10.622;2022-08-19T18:16:21;1.13;;;0.70;;
40637;SDS011;26336;44.696;10.622;2022-08-19T18:19:25;2.65;;;1.30;;
40637;SDS011;26336;44.696;10.622;2022-08-19T18:22:31;2.50;;;1.00;;
40637;SDS011;26336;44.696;10.622;2022-08-19T18:25:38;2.05;;;0.75;;
40637;SDS011;26336;44.696;10.622;2022-08-19T18:28:42;5.10;;;2.58;;
40637;SDS011;26336;44.696;10.622;2022-08-19T18:31:47;13.18;;;6.82;;
40637;SDS011;26336;44.696;10.622;2022-08-19T18:34:51;3.63;;;2.00;;